sensor_id;sensor_type;location;lat;lon;timestamp;P1;durP1;ratioP1;P2;durP2;ratioP2
14066;SDS011;7108;42.684;23.350;2023-01-04T00:01:03;214.57;;;77.32;;
14066;SDS011;7108;42.684;23.350;2023-01-04T00:03:30;223.57;;;76.83;;
14066;SDS011;7108;42.684;23.350;2023-01-04T00:05:59;223.77;;;78.53;;
14066;SDS011;7108;42.684;23.350;2023-01-04T00:08:26;217.53;;;75.40;;
14066;SDS011;7108;42.684;23.350;2023-01-04T00:10:52;223.03;;;78.97;;
14066;SDS011;7108;42.684;23.350;2023-01-04T00:13:18;218.60;;;77.07;;
14066;SDS011;7108;42.684;23.350;2023-01-04T00:15:43;228.03;;;79.53;;
14066;SDS011;7108;42.684;23.350;2023-01-04T00:18:08;233.80;;;80.13;;
14066;SDS011;7108;42.684;23.350;2023-01-04T00:20:34;230.73;;;77.90;;
14066;SDS011;7108;42.684;23.350;2023-01-04T00:23:00;227.03;;;77.53;;
14066;SDS011;7108;42.684;23.350;2023-01-04T00:25:25;230.13;;;78.00;;
14066;SDS011;7108;42.684;23.350;2023-01-04T00:27:51;210.73;;;77.03;;
14066;SDS011;7108;42.684;23.350;2023-01-04T00:30:17;210.73;;;76.37;;
14066;SDS011;7108;42.684;23.350;2023-01-04T00:32:44;222.17;;;76.10;;
14066;SDS011;7108;42.684;23.350;2023-01-04T00:35:10;220.70;;;78.57;;
14066;SDS011;7108;42.684;23.350;2023-01-04T00:37:35;238.87;;;78.57;;
14066;SDS011;7108;42.684;23.350;2023-01-04T00:40:01;243.77;;;79.97;;
14066;SDS011;7108;42.684;23.350;2023-01-04T00:42:26;241.87;;;81.00;;
14066;SDS011;7108;42.684;23.350;2023-01-04T00:44:52;215.87;;;79.13;;
14066;SDS011;7108;42.684;23.350;2023-01-04T00:47:17;222.73;;;79.63;;
14066;SDS011;7108;42.684;23.350;2023-01-04T00:49:43;236.70;;;80.13;;
14066;SDS011;7108;42.684;23.350;2023-01-04T00:52:08;232.60;;;81.23;;
14066;SDS011;7108;42.684;23.350;2023-01-04T00:54:33;232.07;;;78.10;;
14066;SDS011;7108;42.684;23.350;2023-01-04T00:56:59;246.33;;;81.63;;
14066;SDS011;7108;42.684;23.350;2023-01-04T00:59:25;225.03;;;80.00;;
14066;SDS011;7108;42.684;23.350;2023-01-04T01:01:50;210.03;;;75.40;;
14066;SDS011;7108;42.684;23.350;2023-01-04T01:04:17;247.50;;;80.00;;
14066;SDS011;7108;42.684;23.350;2023-01-04T01:06:45;236.83;;;80.83;;
14066;SDS011;7108;42.684;23.350;2023-01-04T01:09:11;243.10;;;77.93;;
14066;SDS011;7108;42.684;23.350;2023-01-04T01:11:37;229.80;;;77.60;;
14066;SDS011;7108;42.684;23.350;2023-01-04T01:14:03;238.90;;;81.43;;
14066;SDS011;7108;42.684;23.350;2023-01-04T01:16:29;227.90;;;76.23;;
14066;SDS011;7108;42.684;23.350;2023-01-04T01:18:55;213.63;;;79.20;;
14066;SDS011;7108;42.684;23.350;2023-01-04T01:21:21;224.13;;;79.27;;
14066;SDS011;7108;42.684;23.350;2023-01-04T01:23:50;213.18;;;76.85;;
14066;SDS011;7108;42.684;23.350;2023-01-04T01:26:17;238.00;;;81.93;;
14066;SDS011;7108;42.684;23.350;2023-01-04T01:28:44;228.43;;;77.70;;
14066;SDS011;7108;42.684;23.350;2023-01-04T01:31:11;236.23;;;80.72;;
14066;SDS011;7108;42.684;23.350;2023-01-04T01:33:40;225.57;;;79.40;;
14066;SDS011;7108;42.684;23.350;2023-01-04T01:36:06;236.37;;;78.73;;
14066;SDS011;7108;42.684;23.350;2023-01-04T01:38:33;250.80;;;79.70;;
14066;SDS011;7108;42.684;23.350;2023-01-04T01:41:00;232.40;;;79.83;;
14066;SDS011;7108;42.684;23.350;2023-01-04T01:46:10;223.52;;;76.18;;
14066;SDS011;7108;42.684;23.350;2023-01-04T01:48:36;244.90;;;83.20;;
14066;SDS011;7108;42.684;23.350;2023-01-04T01:51:03;224.90;;;76.10;;
14066;SDS011;7108;42.684;23.350;2023-01-04T01:53:30;218.40;;;78.15;;
14066;SDS011;7108;42.684;23.350;2023-01-04T01:55:58;209.25;;;76.63;;
14066;SDS011;7108;42.684;23.350;2023-01-04T01:58:36;236.50;;;80.40;;
14066;SDS011;7108;42.684;23.350;2023-01-04T02:01:06;226.38;;;80.15;;
14066;SDS011;7108;42.684;23.350;2023-01-04T02:03:36;237.53;;;79.60;;
14066;SDS011;7108;42.684;23.350;2023-01-04T02:06:05;236.60;;;79.55;;
14066;SDS011;7108;42.684;23.350;2023-01-04T02:08:37;233.13;;;78.20;;
14066;SDS011;7108;42.684;23.350;2023-01-04T02:11:05;231.18;;;79.63;;
14066;SDS011;7108;42.684;23.350;2023-01-04T02:13:31;224.93;;;77.90;;
14066;SDS011;7108;42.684;23.350;2023-01-04T02:18:54;225.70;;;78.75;;
14066;SDS011;7108;42.684;23.350;2023-01-04T02:35:29;210.27;;;77.68;;
14066;SDS011;7108;42.684;23.350;2023-01-04T02:38:11;212.70;;;76.25;;
14066;SDS011;7108;42.684;23.350;2023-01-04T02:40:51;220.50;;;77.72;;
14066;SDS011;7108;42.684;23.350;2023-01-04T02:43:39;224.68;;;80.15;;
14066;SDS011;7108;42.684;23.350;2023-01-04T02:46:34;216.73;;;77.80;;
14066;SDS011;7108;42.684;23.350;2023-01-04T02:49:04;233.07;;;80.10;;
14066;SDS011;7108;42.684;23.350;2023-01-04T02:51:48;211.80;;;78.38;;
14066;SDS011;7108;42.684;23.350;2023-01-04T02:54:14;234.67;;;80.17;;
14066;SDS011;7108;42.684;23.350;2023-01-04T03:08:16;216.80;;;75.85;;
14066;SDS011;7108;42.684;23.350;2023-01-04T03:10:46;225.48;;;76.93;;
14066;SDS011;7108;42.684;23.350;2023-01-04T03:13:18;220.32;;;76.15;;
14066;SDS011;7108;42.684;23.350;2023-01-04T03:15:49;211.27;;;76.75;;
14066;SDS011;7108;42.684;23.350;2023-01-04T03:18:21;221.73;;;77.82;;
14066;SDS011;7108;42.684;23.350;2023-01-04T03:20:51;213.88;;;78.20;;
14066;SDS011;7108;42.684;23.350;2023-01-04T03:23:20;219.35;;;76.45;;
14066;SDS011;7108;42.684;23.350;2023-01-04T03:26:09;227.95;;;79.03;;
14066;SDS011;7108;42.684;23.350;2023-01-04T03:28:57;215.68;;;79.93;;
14066;SDS011;7108;42.684;23.350;2023-01-04T03:32:06;222.50;;;79.07;;
14066;SDS011;7108;42.684;23.350;2023-01-04T03:34:53;213.85;;;79.68;;
14066;SDS011;7108;42.684;23.350;2023-01-04T03:40:40;226.82;;;76.50;;
14066;SDS011;7108;42.684;23.350;2023-01-04T03:43:40;228.30;;;78.20;;
14066;SDS011;7108;42.684;23.350;2023-01-04T03:46:30;214.05;;;74.72;;
14066;SDS011;7108;42.684;23.350;2023-01-04T03:51:52;206.48;;;77.13;;
14066;SDS011;7108;42.684;23.350;2023-01-04T03:54:29;213.52;;;78.82;;
14066;SDS011;7108;42.684;23.350;2023-01-04T03:56:57;207.43;;;75.00;;
14066;SDS011;7108;42.684;23.350;2023-01-04T03:59:23;216.77;;;78.43;;
14066;SDS011;7108;42.684;23.350;2023-01-04T04:01:49;201.83;;;75.40;;
14066;SDS011;7108;42.684;23.350;2023-01-04T04:04:17;214.82;;;79.53;;
14066;SDS011;7108;42.684;23.350;2023-01-04T04:07:02;219.82;;;77.07;;
14066;SDS011;7108;42.684;23.350;2023-01-04T04:09:46;226.75;;;81.45;;
14066;SDS011;7108;42.684;23.350;2023-01-04T04:12:11;217.73;;;79.80;;
14066;SDS011;7108;42.684;23.350;2023-01-04T04:14:37;222.00;;;78.63;;
14066;SDS011;7108;42.684;23.350;2023-01-04T04:17:02;227.73;;;77.77;;
14066;SDS011;7108;42.684;23.350;2023-01-04T04:19:28;205.00;;;76.60;;
14066;SDS011;7108;42.684;23.350;2023-01-04T04:21:53;207.63;;;75.00;;
14066;SDS011;7108;42.684;23.350;2023-01-04T04:24:20;221.20;;;76.70;;
14066;SDS011;7108;42.684;23.350;2023-01-04T04:26:50;203.13;;;75.57;;
14066;SDS011;7108;42.684;23.350;2023-01-04T04:29:18;200.10;;;75.13;;
14066;SDS011;7108;42.684;23.350;2023-01-04T04:31:44;210.20;;;76.77;;
14066;SDS011;7108;42.684;23.350;2023-01-04T04:34:09;216.60;;;75.20;;
14066;SDS011;7108;42.684;23.350;2023-01-04T04:36:35;216.75;;;76.13;;
14066;SDS011;7108;42.684;23.350;2023-01-04T04:39:01;213.17;;;77.43;;
14066;SDS011;7108;42.684;23.350;2023-01-04T04:41:28;222.53;;;76.23;;
14066;SDS011;7108;42.684;23.350;2023-01-04T04:44:03;222.30;;;78.95;;
14066;SDS011;7108;42.684;23.350;2023-01-04T04:46:29;236.32;;;79.90;;
14066;SDS011;7108;42.684;23.350;2023-01-04T04:48:54;213.93;;;76.33;;
14066;SDS011;7108;42.684;23.350;2023-01-04T04:51:20;221.23;;;82.03;;
14066;SDS011;7108;42.684;23.350;2023-01-04T04:53:46;217.63;;;75.88;;
14066;SDS011;7108;42.684;23.350;2023-01-04T04:56:12;225.07;;;78.93;;
14066;SDS011;7108;42.684;23.350;2023-01-04T04:58:37;221.17;;;75.20;;
14066;SDS011;7108;42.684;23.350;2023-01-04T05:01:03;217.97;;;79.60;;
14066;SDS011;7108;42.684;23.350;2023-01-04T05:03:29;228.23;;;80.87;;
14066;SDS011;7108;42.684;23.350;2023-01-04T05:05:55;214.07;;;77.50;;
14066;SDS011;7108;42.684;23.350;2023-01-04T05:08:20;203.37;;;76.23;;
14066;SDS011;7108;42.684;23.350;2023-01-04T05:10:46;212.87;;;79.53;;
14066;SDS011;7108;42.684;23.350;2023-01-04T05:13:12;219.40;;;74.80;;
14066;SDS011;7108;42.684;23.350;2023-01-04T05:15:41;226.77;;;77.63;;
14066;SDS011;7108;42.684;23.350;2023-01-04T05:18:10;237.75;;;78.93;;
14066;SDS011;7108;42.684;23.350;2023-01-04T05:20:37;248.55;;;77.88;;
14066;SDS011;7108;42.684;23.350;2023-01-04T05:23:03;226.03;;;77.27;;
14066;SDS011;7108;42.684;23.350;2023-01-04T05:25:30;234.90;;;80.15;;
14066;SDS011;7108;42.684;23.350;2023-01-04T05:27:56;223.23;;;78.30;;
14066;SDS011;7108;42.684;23.350;2023-01-04T05:30:21;215.77;;;74.63;;
14066;SDS011;7108;42.684;23.350;2023-01-04T05:33:06;237.90;;;81.13;;
14066;SDS011;7108;42.684;23.350;2023-01-04T05:35:32;234.65;;;78.35;;
14066;SDS011;7108;42.684;23.350;2023-01-04T05:37:57;221.57;;;77.30;;
14066;SDS011;7108;42.684;23.350;2023-01-04T05:40:24;219.93;;;76.73;;
14066;SDS011;7108;42.684;23.350;2023-01-04T05:42:49;211.70;;;74.00;;
14066;SDS011;7108;42.684;23.350;2023-01-04T05:45:15;223.57;;;78.13;;
14066;SDS011;7108;42.684;23.350;2023-01-04T05:47:41;235.93;;;79.05;;
14066;SDS011;7108;42.684;23.350;2023-01-04T05:50:07;229.37;;;78.90;;
14066;SDS011;7108;42.684;23.350;2023-01-04T05:52:33;221.55;;;75.50;;
14066;SDS011;7108;42.684;23.350;2023-01-04T05:54:59;220.80;;;76.47;;
14066;SDS011;7108;42.684;23.350;2023-01-04T05:57:25;224.43;;;76.40;;
14066;SDS011;7108;42.684;23.350;2023-01-04T05:59:51;208.40;;;76.63;;
14066;SDS011;7108;42.684;23.350;2023-01-04T06:02:17;213.13;;;79.23;;
14066;SDS011;7108;42.684;23.350;2023-01-04T06:04:45;244.57;;;82.40;;
14066;SDS011;7108;42.684;23.350;2023-01-04T06:07:11;252.80;;;80.43;;
14066;SDS011;7108;42.684;23.350;2023-01-04T06:09:37;272.70;;;87.27;;
14066;SDS011;7108;42.684;23.350;2023-01-04T06:12:02;218.30;;;78.73;;
14066;SDS011;7108;42.684;23.350;2023-01-04T06:14:28;220.07;;;76.40;;
14066;SDS011;7108;42.684;23.350;2023-01-04T06:16:53;231.47;;;77.70;;
14066;SDS011;7108;42.684;23.350;2023-01-04T06:19:18;213.93;;;76.70;;
14066;SDS011;7108;42.684;23.350;2023-01-04T06:21:44;268.13;;;95.90;;
14066;SDS011;7108;42.684;23.350;2023-01-04T06:24:09;256.53;;;87.60;;
14066;SDS011;7108;42.684;23.350;2023-01-04T06:26:35;229.27;;;77.60;;
14066;SDS011;7108;42.684;23.350;2023-01-04T06:29:01;210.17;;;77.80;;
14066;SDS011;7108;42.684;23.350;2023-01-04T06:31:27;226.87;;;77.53;;
14066;SDS011;7108;42.684;23.350;2023-01-04T06:33:53;206.60;;;76.93;;
14066;SDS011;7108;42.684;23.350;2023-01-04T06:36:19;221.07;;;79.93;;
14066;SDS011;7108;42.684;23.350;2023-01-04T06:38:45;218.80;;;79.73;;
14066;SDS011;7108;42.684;23.350;2023-01-04T06:41:10;235.73;;;78.47;;
14066;SDS011;7108;42.684;23.350;2023-01-04T06:43:35;237.57;;;78.50;;
14066;SDS011;7108;42.684;23.350;2023-01-04T06:46:01;214.03;;;77.37;;
14066;SDS011;7108;42.684;23.350;2023-01-04T06:48:27;221.60;;;81.68;;
14066;SDS011;7108;42.684;23.350;2023-01-04T06:50:53;208.80;;;74.47;;
14066;SDS011;7108;42.684;23.350;2023-01-04T06:53:19;225.40;;;74.40;;
14066;SDS011;7108;42.684;23.350;2023-01-04T06:55:44;234.10;;;77.70;;
14066;SDS011;7108;42.684;23.350;2023-01-04T06:58:10;278.73;;;83.38;;
14066;SDS011;7108;42.684;23.350;2023-01-04T07:00:36;304.53;;;86.67;;
14066;SDS011;7108;42.684;23.350;2023-01-04T07:03:01;268.50;;;83.67;;
14066;SDS011;7108;42.684;23.350;2023-01-04T07:05:27;305.87;;;86.93;;
14066;SDS011;7108;42.684;23.350;2023-01-04T07:07:53;281.17;;;85.75;;
14066;SDS011;7108;42.684;23.350;2023-01-04T07:10:18;273.57;;;80.97;;
14066;SDS011;7108;42.684;23.350;2023-01-04T07:12:44;278.90;;;81.80;;
14066;SDS011;7108;42.684;23.350;2023-01-04T07:15:09;273.07;;;80.47;;
14066;SDS011;7108;42.684;23.350;2023-01-04T07:17:36;293.70;;;83.28;;
14066;SDS011;7108;42.684;23.350;2023-01-04T07:20:01;280.87;;;81.43;;
14066;SDS011;7108;42.684;23.350;2023-01-04T07:22:28;259.60;;;81.47;;
14066;SDS011;7108;42.684;23.350;2023-01-04T07:24:54;269.30;;;81.70;;
14066;SDS011;7108;42.684;23.350;2023-01-04T07:27:19;285.33;;;83.37;;
14066;SDS011;7108;42.684;23.350;2023-01-04T07:29:44;297.80;;;85.60;;
14066;SDS011;7108;42.684;23.350;2023-01-04T07:32:16;258.17;;;82.72;;
14066;SDS011;7108;42.684;23.350;2023-01-04T07:34:41;267.80;;;81.35;;
14066;SDS011;7108;42.684;23.350;2023-01-04T07:37:07;292.95;;;85.25;;
14066;SDS011;7108;42.684;23.350;2023-01-04T07:39:33;269.77;;;80.53;;
14066;SDS011;7108;42.684;23.350;2023-01-04T07:41:59;272.47;;;83.43;;
14066;SDS011;7108;42.684;23.350;2023-01-04T07:44:25;285.57;;;83.23;;
14066;SDS011;7108;42.684;23.350;2023-01-04T07:46:52;274.73;;;78.95;;
14066;SDS011;7108;42.684;23.350;2023-01-04T07:49:17;295.77;;;83.50;;
14066;SDS011;7108;42.684;23.350;2023-01-04T07:51:44;293.07;;;83.60;;
14066;SDS011;7108;42.684;23.350;2023-01-04T07:54:11;306.73;;;85.32;;
14066;SDS011;7108;42.684;23.350;2023-01-04T07:56:36;309.17;;;83.60;;
14066;SDS011;7108;42.684;23.350;2023-01-04T07:59:05;268.03;;;82.33;;
14066;SDS011;7108;42.684;23.350;2023-01-04T08:01:32;294.67;;;85.07;;
14066;SDS011;7108;42.684;23.350;2023-01-04T08:03:59;305.80;;;86.68;;
14066;SDS011;7108;42.684;23.350;2023-01-04T08:06:25;276.38;;;83.25;;
14066;SDS011;7108;42.684;23.350;2023-01-04T08:08:51;259.33;;;82.20;;
14066;SDS011;7108;42.684;23.350;2023-01-04T08:11:18;307.63;;;89.60;;
14066;SDS011;7108;42.684;23.350;2023-01-04T08:13:46;293.95;;;83.93;;
14066;SDS011;7108;42.684;23.350;2023-01-04T08:19:01;301.67;;;85.57;;
14066;SDS011;7108;42.684;23.350;2023-01-04T08:21:28;311.27;;;85.05;;
14066;SDS011;7108;42.684;23.350;2023-01-04T08:23:55;276.65;;;83.10;;
14066;SDS011;7108;42.684;23.350;2023-01-04T08:26:22;281.38;;;82.20;;
14066;SDS011;7108;42.684;23.350;2023-01-04T08:28:51;282.60;;;84.20;;
14066;SDS011;7108;42.684;23.350;2023-01-04T08:31:18;287.67;;;82.93;;
14066;SDS011;7108;42.684;23.350;2023-01-04T08:33:45;282.20;;;95.30;;
14066;SDS011;7108;42.684;23.350;2023-01-04T08:36:22;274.38;;;81.63;;
14066;SDS011;7108;42.684;23.350;2023-01-04T08:38:49;265.65;;;81.43;;
14066;SDS011;7108;42.684;23.350;2023-01-04T08:41:16;271.63;;;82.15;;
14066;SDS011;7108;42.684;23.350;2023-01-04T08:43:42;264.15;;;80.75;;
14066;SDS011;7108;42.684;23.350;2023-01-04T08:46:08;269.63;;;80.80;;
14066;SDS011;7108;42.684;23.350;2023-01-04T08:48:34;296.20;;;84.95;;
14066;SDS011;7108;42.684;23.350;2023-01-04T08:51:00;271.80;;;78.90;;
14066;SDS011;7108;42.684;23.350;2023-01-04T08:53:27;291.08;;;79.45;;
14066;SDS011;7108;42.684;23.350;2023-01-04T08:55:53;288.47;;;83.60;;
14066;SDS011;7108;42.684;23.350;2023-01-04T08:58:23;290.02;;;82.75;;
14066;SDS011;7108;42.684;23.350;2023-01-04T09:00:48;301.90;;;85.50;;
14066;SDS011;7108;42.684;23.350;2023-01-04T09:03:14;268.77;;;81.57;;
14066;SDS011;7108;42.684;23.350;2023-01-04T09:05:40;297.07;;;84.60;;
14066;SDS011;7108;42.684;23.350;2023-01-04T09:08:06;287.50;;;85.50;;
14066;SDS011;7108;42.684;23.350;2023-01-04T09:10:32;256.50;;;77.77;;
14066;SDS011;7108;42.684;23.350;2023-01-04T09:13:00;302.67;;;83.27;;
14066;SDS011;7108;42.684;23.350;2023-01-04T09:15:26;244.98;;;78.60;;
14066;SDS011;7108;42.684;23.350;2023-01-04T09:17:51;216.87;;;77.90;;
14066;SDS011;7108;42.684;23.350;2023-01-04T09:20:16;232.57;;;79.50;;
14066;SDS011;7108;42.684;23.350;2023-01-04T09:22:42;226.93;;;76.77;;
14066;SDS011;7108;42.684;23.350;2023-01-04T09:25:10;210.80;;;76.90;;
14066;SDS011;7108;42.684;23.350;2023-01-04T09:27:36;256.33;;;80.50;;
14066;SDS011;7108;42.684;23.350;2023-01-04T09:30:04;228.95;;;77.25;;
14066;SDS011;7108;42.684;23.350;2023-01-04T09:32:30;230.80;;;75.70;;
14066;SDS011;7108;42.684;23.350;2023-01-04T09:34:55;214.87;;;73.50;;
14066;SDS011;7108;42.684;23.350;2023-01-04T09:37:21;223.57;;;74.83;;
14066;SDS011;7108;42.684;23.350;2023-01-04T09:39:46;224.23;;;75.90;;
14066;SDS011;7108;42.684;23.350;2023-01-04T09:42:16;216.73;;;74.60;;
14066;SDS011;7108;42.684;23.350;2023-01-04T09:44:50;234.30;;;76.20;;
14066;SDS011;7108;42.684;23.350;2023-01-04T09:50:06;220.20;;;74.60;;
14066;SDS011;7108;42.684;23.350;2023-01-04T09:55:43;241.15;;;77.53;;
14066;SDS011;7108;42.684;23.350;2023-01-04T10:00:54;213.50;;;79.15;;
14066;SDS011;7108;42.684;23.350;2023-01-04T10:03:30;278.13;;;80.78;;
14066;SDS011;7108;42.684;23.350;2023-01-04T10:06:01;280.58;;;83.53;;
14066;SDS011;7108;42.684;23.350;2023-01-04T10:08:27;275.13;;;80.15;;
14066;SDS011;7108;42.684;23.350;2023-01-04T10:22:24;283.80;;;81.50;;
14066;SDS011;7108;42.684;23.350;2023-01-04T10:27:46;302.75;;;83.43;;
14066;SDS011;7108;42.684;23.350;2023-01-04T10:36:33;294.60;;;83.85;;
14066;SDS011;7108;42.684;23.350;2023-01-04T10:39:16;262.02;;;78.07;;
14066;SDS011;7108;42.684;23.350;2023-01-04T10:41:45;274.50;;;77.95;;
14066;SDS011;7108;42.684;23.350;2023-01-04T10:44:18;272.85;;;79.63;;
14066;SDS011;7108;42.684;23.350;2023-01-04T10:47:28;318.92;;;85.30;;
14066;SDS011;7108;42.684;23.350;2023-01-04T10:49:41;308.33;;;80.85;;
14066;SDS011;7108;42.684;23.350;2023-01-04T10:52:15;263.02;;;75.95;;
14066;SDS011;7108;42.684;23.350;2023-01-04T10:54:46;277.42;;;78.97;;
14066;SDS011;7108;42.684;23.350;2023-01-04T10:57:27;244.13;;;77.05;;
14066;SDS011;7108;42.684;23.350;2023-01-04T11:02:37;225.10;;;75.65;;
14066;SDS011;7108;42.684;23.350;2023-01-04T11:05:07;221.23;;;75.97;;
14066;SDS011;7108;42.684;23.350;2023-01-04T11:08:19;251.07;;;77.85;;
14066;SDS011;7108;42.684;23.350;2023-01-04T11:10:53;232.60;;;78.57;;
14066;SDS011;7108;42.684;23.350;2023-01-04T11:13:22;204.05;;;72.28;;
14066;SDS011;7108;42.684;23.350;2023-01-04T11:15:49;202.40;;;72.45;;
14066;SDS011;7108;42.684;23.350;2023-01-04T11:18:15;243.85;;;79.13;;
14066;SDS011;7108;42.684;23.350;2023-01-04T11:20:41;238.60;;;77.38;;
14066;SDS011;7108;42.684;23.350;2023-01-04T11:23:17;237.23;;;76.13;;
14066;SDS011;7108;42.684;23.350;2023-01-04T11:25:58;247.60;;;77.30;;
14066;SDS011;7108;42.684;23.350;2023-01-04T11:28:36;212.18;;;73.18;;
14066;SDS011;7108;42.684;23.350;2023-01-04T11:31:32;224.27;;;76.43;;
14066;SDS011;7108;42.684;23.350;2023-01-04T11:34:14;228.55;;;75.57;;
14066;SDS011;7108;42.684;23.350;2023-01-04T11:36:43;233.70;;;75.87;;
14066;SDS011;7108;42.684;23.350;2023-01-04T11:39:18;220.55;;;75.82;;
14066;SDS011;7108;42.684;23.350;2023-01-04T11:42:03;212.80;;;75.07;;
14066;SDS011;7108;42.684;23.350;2023-01-04T11:44:33;226.27;;;75.22;;
14066;SDS011;7108;42.684;23.350;2023-01-04T11:47:19;209.05;;;75.30;;
14066;SDS011;7108;42.684;23.350;2023-01-04T11:49:46;231.63;;;76.72;;
14066;SDS011;7108;42.684;23.350;2023-01-04T11:52:31;214.90;;;76.20;;
14066;SDS011;7108;42.684;23.350;2023-01-04T12:00:38;240.25;;;82.13;;
14066;SDS011;7108;42.684;23.350;2023-01-04T12:05:50;207.07;;;73.03;;
14066;SDS011;7108;42.684;23.350;2023-01-04T12:08:27;220.53;;;73.10;;
14066;SDS011;7108;42.684;23.350;2023-01-04T12:10:55;211.98;;;73.57;;
14066;SDS011;7108;42.684;23.350;2023-01-04T12:13:22;202.13;;;71.78;;
14066;SDS011;7108;42.684;23.350;2023-01-04T12:18:50;232.02;;;77.22;;
14066;SDS011;7108;42.684;23.350;2023-01-04T12:21:17;223.65;;;75.63;;
14066;SDS011;7108;42.684;23.350;2023-01-04T12:23:47;220.97;;;74.60;;
14066;SDS011;7108;42.684;23.350;2023-01-04T12:26:13;220.90;;;73.45;;
14066;SDS011;7108;42.684;23.350;2023-01-04T12:28:44;226.13;;;75.72;;
14066;SDS011;7108;42.684;23.350;2023-01-04T12:33:44;214.75;;;76.55;;
14066;SDS011;7108;42.684;23.350;2023-01-04T12:42:07;214.25;;;76.85;;
14066;SDS011;7108;42.684;23.350;2023-01-04T12:47:48;220.80;;;75.65;;
14066;SDS011;7108;42.684;23.350;2023-01-04T12:50:11;211.10;;;74.90;;
14066;SDS011;7108;42.684;23.350;2023-01-04T12:55:23;224.23;;;78.43;;
14066;SDS011;7108;42.684;23.350;2023-01-04T12:57:49;215.63;;;75.72;;
14066;SDS011;7108;42.684;23.350;2023-01-04T13:00:15;220.50;;;77.77;;
14066;SDS011;7108;42.684;23.350;2023-01-04T13:02:41;228.90;;;76.97;;
14066;SDS011;7108;42.684;23.350;2023-01-04T13:18:27;208.90;;;76.95;;
14066;SDS011;7108;42.684;23.350;2023-01-04T13:23:45;229.80;;;77.37;;
14066;SDS011;7108;42.684;23.350;2023-01-04T13:29:10;215.38;;;76.60;;
14066;SDS011;7108;42.684;23.350;2023-01-04T13:37:03;223.43;;;76.13;;
14066;SDS011;7108;42.684;23.350;2023-01-04T13:39:36;215.67;;;77.17;;
14066;SDS011;7108;42.684;23.350;2023-01-04T13:42:15;221.13;;;76.60;;
14066;SDS011;7108;42.684;23.350;2023-01-04T13:45:33;265.83;;;92.63;;
14066;SDS011;7108;42.684;23.350;2023-01-04T13:47:57;218.50;;;77.90;;
14066;SDS011;7108;42.684;23.350;2023-01-04T13:52:55;221.60;;;74.88;;
14066;SDS011;7108;42.684;23.350;2023-01-04T13:57:55;216.70;;;77.72;;
14066;SDS011;7108;42.684;23.350;2023-01-04T14:00:22;209.80;;;77.97;;
14066;SDS011;7108;42.684;23.350;2023-01-04T14:05:47;261.25;;;80.47;;
14066;SDS011;7108;42.684;23.350;2023-01-04T14:08:26;225.20;;;76.27;;
14066;SDS011;7108;42.684;23.350;2023-01-04T14:10:58;230.05;;;80.35;;
14066;SDS011;7108;42.684;23.350;2023-01-04T14:13:24;215.77;;;77.03;;
14066;SDS011;7108;42.684;23.350;2023-01-04T14:18:36;238.98;;;80.30;;
14066;SDS011;7108;42.684;23.350;2023-01-04T14:21:02;215.70;;;76.30;;
14066;SDS011;7108;42.684;23.350;2023-01-04T14:23:36;221.47;;;77.20;;
14066;SDS011;7108;42.684;23.350;2023-01-04T14:26:02;221.45;;;77.72;;
14066;SDS011;7108;42.684;23.350;2023-01-04T14:28:35;220.20;;;73.65;;
14066;SDS011;7108;42.684;23.350;2023-01-04T14:33:33;217.00;;;78.07;;
14066;SDS011;7108;42.684;23.350;2023-01-04T14:38:35;234.82;;;76.60;;
14066;SDS011;7108;42.684;23.350;2023-01-04T14:43:48;227.75;;;78.32;;
14066;SDS011;7108;42.684;23.350;2023-01-04T14:46:37;238.00;;;77.93;;
14066;SDS011;7108;42.684;23.350;2023-01-04T14:49:03;221.20;;;77.30;;
14066;SDS011;7108;42.684;23.350;2023-01-04T14:54:03;222.55;;;76.72;;
14066;SDS011;7108;42.684;23.350;2023-01-04T14:56:34;240.60;;;78.00;;
14066;SDS011;7108;42.684;23.350;2023-01-04T14:59:00;234.77;;;78.73;;
14066;SDS011;7108;42.684;23.350;2023-01-04T15:01:25;229.87;;;79.10;;
14066;SDS011;7108;42.684;23.350;2023-01-04T15:03:50;212.07;;;75.00;;
14066;SDS011;7108;42.684;23.350;2023-01-04T15:06:16;232.40;;;79.10;;
14066;SDS011;7108;42.684;23.350;2023-01-04T15:08:45;238.65;;;79.93;;
14066;SDS011;7108;42.684;23.350;2023-01-04T15:11:11;291.00;;;84.27;;
14066;SDS011;7108;42.684;23.350;2023-01-04T15:13:37;311.42;;;88.28;;
14066;SDS011;7108;42.684;23.350;2023-01-04T15:16:04;304.88;;;87.95;;
14066;SDS011;7108;42.684;23.350;2023-01-04T15:18:29;295.77;;;87.83;;
14066;SDS011;7108;42.684;23.350;2023-01-04T15:20:55;304.63;;;86.40;;
14066;SDS011;7108;42.684;23.350;2023-01-04T15:23:21;268.00;;;82.23;;
14066;SDS011;7108;42.684;23.350;2023-01-04T15:25:46;292.27;;;86.07;;
14066;SDS011;7108;42.684;23.350;2023-01-04T15:28:12;277.33;;;82.63;;
14066;SDS011;7108;42.684;23.350;2023-01-04T15:30:41;306.70;;;84.73;;
14066;SDS011;7108;42.684;23.350;2023-01-04T15:33:07;285.75;;;84.28;;
14066;SDS011;7108;42.684;23.350;2023-01-04T15:35:33;233.13;;;78.77;;
14066;SDS011;7108;42.684;23.350;2023-01-04T15:37:59;213.37;;;76.60;;
14066;SDS011;7108;42.684;23.350;2023-01-04T15:40:24;219.87;;;77.10;;
14066;SDS011;7108;42.684;23.350;2023-01-04T15:42:49;232.10;;;79.37;;
14066;SDS011;7108;42.684;23.350;2023-01-04T15:45:30;228.52;;;78.65;;
14066;SDS011;7108;42.684;23.350;2023-01-04T15:48:01;230.70;;;79.18;;
14066;SDS011;7108;42.684;23.350;2023-01-04T15:50:28;246.05;;;81.57;;
14066;SDS011;7108;42.684;23.350;2023-01-04T15:52:58;232.00;;;79.25;;
14066;SDS011;7108;42.684;23.350;2023-01-04T15:55:24;221.07;;;77.93;;
14066;SDS011;7108;42.684;23.350;2023-01-04T15:57:50;253.90;;;81.10;;
14066;SDS011;7108;42.684;23.350;2023-01-04T16:00:15;239.97;;;81.40;;
14066;SDS011;7108;42.684;23.350;2023-01-04T16:02:41;246.68;;;80.13;;
14066;SDS011;7108;42.684;23.350;2023-01-04T16:05:07;239.00;;;80.13;;
14066;SDS011;7108;42.684;23.350;2023-01-04T16:07:33;243.35;;;80.68;;
14066;SDS011;7108;42.684;23.350;2023-01-04T16:09:59;228.27;;;80.87;;
14066;SDS011;7108;42.684;23.350;2023-01-04T16:12:24;232.97;;;79.80;;
14066;SDS011;7108;42.684;23.350;2023-01-04T16:15:15;232.80;;;80.28;;
14066;SDS011;7108;42.684;23.350;2023-01-04T16:17:43;238.65;;;79.88;;
14066;SDS011;7108;42.684;23.350;2023-01-04T16:20:10;241.18;;;83.57;;
14066;SDS011;7108;42.684;23.350;2023-01-04T16:22:38;247.45;;;80.13;;
14066;SDS011;7108;42.684;23.350;2023-01-04T16:25:04;240.53;;;79.33;;
14066;SDS011;7108;42.684;23.350;2023-01-04T16:27:31;239.07;;;78.65;;
14066;SDS011;7108;42.684;23.350;2023-01-04T16:29:58;221.45;;;79.30;;
14066;SDS011;7108;42.684;23.350;2023-01-04T16:32:24;220.13;;;75.15;;
14066;SDS011;7108;42.684;23.350;2023-01-04T16:34:49;237.23;;;80.13;;
14066;SDS011;7108;42.684;23.350;2023-01-04T16:37:15;238.97;;;80.17;;
14066;SDS011;7108;42.684;23.350;2023-01-04T16:39:41;242.67;;;78.20;;
14066;SDS011;7108;42.684;23.350;2023-01-04T16:42:06;247.77;;;82.00;;